createdAt,value
2017-12-22T00:01:23.500Z,6.50
2017-12-22T00:03:51.053Z,6.50
2017-12-22T00:06:18.480Z,6.50
2017-12-22T00:08:46.088Z,6.50
2017-12-22T00:11:13.529Z,6.50
2017-12-22T00:13:45.478Z,6.60
2017-12-22T00:16:13.015Z,6.60
2017-12-22T00:18:41.228Z,6.60
2017-12-22T00:21:08.695Z,6.60
2017-12-22T00:23:36.258Z,6.70
2017-12-22T00:26:03.701Z,6.70
2017-12-22T00:28:31.222Z,6.70
2017-12-22T00:30:59.480Z,6.60
2017-12-22T00:33:26.937Z,6.60
2017-12-22T00:35:54.385Z,6.60
2017-12-22T00:38:21.917Z,6.60
2017-12-22T00:40:49.404Z,6.60
2017-12-22T00:43:16.835Z,6.60
2017-12-22T00:45:59.260Z,6.60
2017-12-22T00:48:26.699Z,6.60
2017-12-22T00:50:54.439Z,6.50
2017-12-22T00:53:22.020Z,6.50
2017-12-22T00:55:49.468Z,6.40
2017-12-22T00:58:17.021Z,6.50
2017-12-22T01:00:48.376Z,6.50
2017-12-22T01:03:15.824Z,6.40
2017-12-22T01:05:43.314Z,6.40
2017-12-22T01:08:10.785Z,6.50
2017-12-22T01:10:38.233Z,6.40
2017-12-22T01:13:09.577Z,6.40
2017-12-22T01:15:42.750Z,6.40
2017-12-22T01:18:15.919Z,6.40
2017-12-22T01:20:43.381Z,6.50
2017-12-22T01:23:10.837Z,6.50
2017-12-22T01:25:38.308Z,6.50
2017-12-22T01:28:05.809Z,6.50
2017-12-22T01:30:33.260Z,6.40
2017-12-22T01:33:00.709Z,6.40
2017-12-22T01:35:28.696Z,6.40
2017-12-22T01:37:56.194Z,6.40
2017-12-22T01:40:23.654Z,6.40
2017-12-22T01:42:51.157Z,6.40
2017-12-22T01:45:18.625Z,6.40
2017-12-22T01:47:46.868Z,6.40
2017-12-22T01:50:14.339Z,6.40
2017-12-22T01:52:41.776Z,6.30
2017-12-22T01:55:09.360Z,6.30
2017-12-22T01:57:36.881Z,6.30
2017-12-22T02:00:04.348Z,6.30
2017-12-22T02:02:31.836Z,6.30
2017-12-22T02:04:59.702Z,6.30
2017-12-22T02:07:27.168Z,6.30
2017-12-22T02:09:54.634Z,6.30
2017-12-22T02:12:22.076Z,6.30
2017-12-22T02:14:52.901Z,6.30
2017-12-22T02:17:20.364Z,6.40
2017-12-22T02:19:47.827Z,6.40
2017-12-22T02:22:15.327Z,6.40
2017-12-22T02:24:42.754Z,6.30
2017-12-22T02:27:10.204Z,6.30
2017-12-22T02:29:41.652Z,6.30
2017-12-22T02:32:09.112Z,6.30
2017-12-22T02:34:36.616Z,6.30
2017-12-22T02:37:04.075Z,6.30
2017-12-22T02:39:31.533Z,6.30
2017-12-22T02:41:59.220Z,6.20
2017-12-22T02:44:26.705Z,6.20
2017-12-22T02:46:54.140Z,6.30
2017-12-22T02:49:21.665Z,6.30
2017-12-22T02:51:49.165Z,6.30
2017-12-22T02:54:16.604Z,6.30
2017-12-22T02:56:44.049Z,6.20
2017-12-22T02:59:12.219Z,6.20
2017-12-22T03:01:39.672Z,6.10
2017-12-22T03:04:07.133Z,6.10
2017-12-22T03:06:34.655Z,6.10
2017-12-22T03:09:02.289Z,6.10
2017-12-22T03:11:29.753Z,6.00
2017-12-22T03:13:57.192Z,6.10
2017-12-22T03:16:24.666Z,6.10
2017-12-22T03:18:52.142Z,6.10
2017-12-22T03:21:20.373Z,6.20
2017-12-22T03:23:48.003Z,6.20
2017-12-22T03:26:15.436Z,6.20
2017-12-22T03:28:43.097Z,6.20
2017-12-22T03:31:10.547Z,6.20
2017-12-22T03:33:38.010Z,6.20
2017-12-22T03:36:05.492Z,6.20
2017-12-22T03:38:33.053Z,6.20
2017-12-22T03:41:00.488Z,6.20
2017-12-22T03:43:27.971Z,6.20
2017-12-22T03:45:55.433Z,6.10
2017-12-22T03:48:22.873Z,6.10
2017-12-22T03:50:50.357Z,6.20
2017-12-22T03:53:18.576Z,6.30
2017-12-22T03:55:46.017Z,6.20
2017-12-22T03:58:13.462Z,6.30
2017-12-22T04:00:45.086Z,6.40
2017-12-22T04:03:12.560Z,6.40
2017-12-22T04:05:40.008Z,6.50
2017-12-22T04:08:07.499Z,6.60
2017-12-22T04:10:34.974Z,6.60
2017-12-22T04:13:02.486Z,6.60
2017-12-22T04:15:29.926Z,6.60
2017-12-22T04:17:57.378Z,6.50
2017-12-22T04:20:24.842Z,6.50
2017-12-22T04:22:52.308Z,6.50
2017-12-22T04:25:20.539Z,6.50
2017-12-22T04:27:48.819Z,6.50
2017-12-22T04:30:16.821Z,6.50
2017-12-22T04:32:44.276Z,6.50
2017-12-22T04:35:11.760Z,6.50
2017-12-22T04:37:39.210Z,6.50
2017-12-22T04:40:06.657Z,6.50
2017-12-22T04:42:34.202Z,6.40
2017-12-22T04:45:01.640Z,6.40
2017-12-22T04:47:29.087Z,6.40
2017-12-22T04:49:56.631Z,6.30
2017-12-22T04:52:24.195Z,6.30
2017-12-22T04:54:51.703Z,6.30
2017-12-22T04:57:19.288Z,6.30
2017-12-22T04:59:46.993Z,6.40
2017-12-22T05:02:17.782Z,6.30
2017-12-22T05:04:45.230Z,6.30
2017-12-22T05:07:12.672Z,6.40
2017-12-22T05:09:40.142Z,6.40
2017-12-22T05:12:07.613Z,6.40
2017-12-22T05:14:35.276Z,6.40
2017-12-22T05:17:14.197Z,6.40
2017-12-22T05:19:41.697Z,6.50
2017-12-22T05:22:09.144Z,6.40
2017-12-22T05:24:36.613Z,6.50
2017-12-22T05:27:04.112Z,6.50
2017-12-22T05:29:31.557Z,6.50
2017-12-22T05:31:58.992Z,6.50
2017-12-22T05:34:26.518Z,6.40
2017-12-22T05:36:53.988Z,6.40
2017-12-22T05:39:22.825Z,6.30
2017-12-22T05:41:50.280Z,6.30
2017-12-22T05:44:17.743Z,6.30
2017-12-22T05:46:45.197Z,6.30
2017-12-22T05:49:12.686Z,6.20
2017-12-22T05:51:40.169Z,6.30
2017-12-22T05:54:07.642Z,6.20
2017-12-22T05:56:35.169Z,6.20
2017-12-22T05:59:03.107Z,6.30
2017-12-22T06:01:30.666Z,6.30
2017-12-22T06:03:58.166Z,6.30
2017-12-22T06:06:25.632Z,6.40
2017-12-22T06:08:53.836Z,6.40
2017-12-22T06:11:21.295Z,6.40
2017-12-22T06:13:48.792Z,6.40
2017-12-22T06:16:16.272Z,6.40
2017-12-22T06:18:44.484Z,6.50
2017-12-22T06:21:15.793Z,6.50
2017-12-22T06:23:43.313Z,6.50
2017-12-22T06:26:10.854Z,6.60
2017-12-22T06:28:38.329Z,6.60
2017-12-22T06:31:05.803Z,6.60
2017-12-22T06:33:37.120Z,6.60
2017-12-22T06:36:04.633Z,6.60
2017-12-22T06:38:32.865Z,6.50
2017-12-22T06:41:00.375Z,6.50
2017-12-22T06:43:28.594Z,6.60
2017-12-22T06:45:56.184Z,6.60
2017-12-22T06:48:23.629Z,6.60
2017-12-22T06:50:51.185Z,6.50
2017-12-22T06:53:18.604Z,6.50
2017-12-22T06:55:46.049Z,6.50
2017-12-22T06:58:13.525Z,6.50
2017-12-22T07:00:40.996Z,6.50
2017-12-22T07:03:08.489Z,6.50
2017-12-22T07:05:35.937Z,6.40
2017-12-22T07:08:03.501Z,6.50
2017-12-22T07:10:30.952Z,6.50
2017-12-22T07:12:58.440Z,6.50
2017-12-22T07:15:26.026Z,6.50
2017-12-22T07:17:53.524Z,6.50
2017-12-22T07:20:20.986Z,6.60
2017-12-22T07:22:52.952Z,6.70
2017-12-22T07:25:20.512Z,6.70
2017-12-22T07:27:48.020Z,6.70
2017-12-22T07:30:15.465Z,6.80
2017-12-22T07:32:42.907Z,6.80
2017-12-22T07:35:21.724Z,6.80
2017-12-22T07:37:50.014Z,6.80
2017-12-22T07:40:17.484Z,6.70
2017-12-22T07:42:44.947Z,6.70
2017-12-22T07:45:12.407Z,6.80
2017-12-22T07:47:39.860Z,6.90
2017-12-22T07:50:10.745Z,6.90
2017-12-22T07:52:38.223Z,7.00
2017-12-22T07:55:06.464Z,7.00
2017-12-22T07:57:33.917Z,6.90
2017-12-22T08:00:01.368Z,7.00
2017-12-22T08:02:28.905Z,7.00
2017-12-22T08:05:00.288Z,7.10
2017-12-22T08:07:27.744Z,7.20
2017-12-22T08:09:55.191Z,7.20
2017-12-22T08:12:22.668Z,7.20
2017-12-22T08:14:50.136Z,7.30
2017-12-22T08:17:17.616Z,7.30
2017-12-22T08:19:45.129Z,7.20
2017-12-22T08:22:12.554Z,7.20
2017-12-22T08:24:40.027Z,7.20
2017-12-22T08:27:07.674Z,7.20
2017-12-22T08:29:35.103Z,7.20
2017-12-22T08:32:03.372Z,7.20
2017-12-22T08:34:31.597Z,7.20
2017-12-22T08:36:59.832Z,7.30
2017-12-22T08:39:28.048Z,7.20
2017-12-22T08:41:55.499Z,7.20
2017-12-22T08:44:22.965Z,7.20
2017-12-22T08:46:50.428Z,7.20
2017-12-22T08:49:17.903Z,7.20
2017-12-22T08:51:45.943Z,7.10
2017-12-22T08:54:13.401Z,7.10
2017-12-22T08:56:40.917Z,7.20
2017-12-22T08:59:08.376Z,7.20
2017-12-22T09:01:35.867Z,7.30
2017-12-22T09:04:03.304Z,7.40
2017-12-22T09:06:30.771Z,7.40
2017-12-22T09:08:58.237Z,7.40
2017-12-22T09:11:25.716Z,7.40
2017-12-22T09:13:53.198Z,7.50
2017-12-22T09:16:20.649Z,7.60
2017-12-22T09:18:48.294Z,7.60
2017-12-22T09:21:15.816Z,7.70
2017-12-22T09:23:43.327Z,7.70
2017-12-22T09:26:10.795Z,7.70
2017-12-22T09:28:38.233Z,7.60
2017-12-22T09:31:05.716Z,7.60
2017-12-22T09:33:33.962Z,7.70
2017-12-22T09:36:01.449Z,7.60
2017-12-22T09:38:28.975Z,7.70
2017-12-22T09:40:56.444Z,7.60
2017-12-22T09:43:23.916Z,7.70
2017-12-22T09:45:51.340Z,7.70
2017-12-22T09:48:18.776Z,7.70
2017-12-22T09:50:46.256Z,7.80
2017-12-22T09:53:13.709Z,7.90
2017-12-22T09:55:41.182Z,7.90
2017-12-22T09:58:08.673Z,8.00
2017-12-22T10:00:36.929Z,8.10
2017-12-22T10:03:04.400Z,8.10
2017-12-22T10:05:31.849Z,8.10
2017-12-22T10:07:59.321Z,8.10
2017-12-22T10:10:26.916Z,8.10
2017-12-22T10:12:54.373Z,8.10
2017-12-22T10:15:21.832Z,8.00
2017-12-22T10:17:49.308Z,8.00
2017-12-22T10:20:16.895Z,8.00
2017-12-22T10:22:44.374Z,8.00
2017-12-22T10:25:11.823Z,8.10
2017-12-22T10:27:39.293Z,8.10
2017-12-22T10:30:07.072Z,8.10
2017-12-22T10:32:34.510Z,8.10
2017-12-22T10:35:01.997Z,8.20
2017-12-22T10:37:29.458Z,8.30
2017-12-22T10:39:56.921Z,8.30
2017-12-22T10:42:24.397Z,8.30
2017-12-22T10:44:51.828Z,8.30
2017-12-22T10:47:19.324Z,8.20
2017-12-22T10:49:46.773Z,8.20
2017-12-22T10:52:14.550Z,8.10
2017-12-22T10:54:42.020Z,8.20
2017-12-22T10:57:10.252Z,8.30
2017-12-22T10:59:37.685Z,8.30
2017-12-22T11:02:05.153Z,8.30
2017-12-22T11:04:32.603Z,8.30
2017-12-22T11:07:00.155Z,8.40
2017-12-22T11:09:31.240Z,8.50
2017-12-22T11:12:06.001Z,8.40
2017-12-22T11:14:33.497Z,8.40
2017-12-22T11:17:00.968Z,8.40
2017-12-22T11:19:28.441Z,8.40
2017-12-22T11:21:55.904Z,8.50
2017-12-22T11:24:23.401Z,8.50
2017-12-22T11:26:54.702Z,8.60
2017-12-22T11:29:22.164Z,8.70
2017-12-22T11:31:49.662Z,8.60
2017-12-22T11:34:17.137Z,8.50
2017-12-22T11:36:44.592Z,8.40
2017-12-22T11:39:15.465Z,8.50
2017-12-22T11:41:42.987Z,8.50
2017-12-22T11:44:10.449Z,8.50
2017-12-22T11:46:37.937Z,8.40
2017-12-22T11:49:05.505Z,8.40
2017-12-22T11:51:32.986Z,8.40
2017-12-22T11:54:04.826Z,8.20
2017-12-22T11:56:32.252Z,8.10
2017-12-22T11:58:59.725Z,8.00
2017-12-22T12:01:27.180Z,8.00
2017-12-22T12:03:54.669Z,7.90
2017-12-22T12:06:22.118Z,7.90
2017-12-22T12:08:56.931Z,7.90
2017-12-22T12:11:32.238Z,7.90
2017-12-22T12:13:59.695Z,7.90
2017-12-22T12:16:27.154Z,7.80
2017-12-22T12:18:54.610Z,7.80
2017-12-22T12:21:22.131Z,7.80
2017-12-22T12:23:49.629Z,7.90
2017-12-22T12:26:17.077Z,8.00
2017-12-22T12:28:44.516Z,8.10
2017-12-22T12:31:11.978Z,8.20
2017-12-22T12:33:39.422Z,8.20
2017-12-22T12:36:06.969Z,8.00
2017-12-22T12:38:34.449Z,7.90
2017-12-22T12:41:02.202Z,7.80
2017-12-22T12:43:29.659Z,7.60
2017-12-22T12:45:57.097Z,7.50
2017-12-22T12:48:24.637Z,7.50
2017-12-22T12:50:52.075Z,7.40
2017-12-22T12:53:19.627Z,7.40
2017-12-22T12:55:47.285Z,7.40
2017-12-22T12:58:14.990Z,7.40
2017-12-22T13:00:42.477Z,7.50
2017-12-22T13:03:09.936Z,7.60
2017-12-22T13:05:37.432Z,7.70
2017-12-22T13:08:04.901Z,7.70
2017-12-22T13:10:32.350Z,7.70
2017-12-22T13:12:59.853Z,7.60
2017-12-22T13:15:27.286Z,7.50
2017-12-22T13:17:54.753Z,7.50
2017-12-22T13:20:22.241Z,7.60
2017-12-22T13:22:49.882Z,7.60
2017-12-22T13:25:21.614Z,7.50
2017-12-22T13:27:49.310Z,7.50
2017-12-22T13:30:16.774Z,7.30
2017-12-22T13:32:44.254Z,7.30
2017-12-22T13:35:11.731Z,7.30
2017-12-22T13:37:39.167Z,7.30
2017-12-22T13:40:06.625Z,7.30
2017-12-22T13:42:34.290Z,7.30
2017-12-22T13:45:01.766Z,7.30
2017-12-22T13:47:29.200Z,7.20
2017-12-22T13:49:56.671Z,7.30
2017-12-22T13:52:24.141Z,7.30
2017-12-22T13:54:51.764Z,7.40
2017-12-22T13:57:19.240Z,7.40
2017-12-22T13:59:46.772Z,7.40
2017-12-22T14:02:15.042Z,7.30
2017-12-22T14:04:42.481Z,7.30
2017-12-22T14:07:09.998Z,7.30
2017-12-22T14:09:37.463Z,7.30
2017-12-22T14:12:08.232Z,7.30
2017-12-22T14:14:35.707Z,7.30
2017-12-22T14:17:03.164Z,7.30
2017-12-22T14:19:30.755Z,7.40
2017-12-22T14:21:58.370Z,7.40
2017-12-22T14:24:25.875Z,7.40
2017-12-22T14:26:53.332Z,7.40
2017-12-22T14:29:20.798Z,7.30
2017-12-22T14:31:48.523Z,7.30
2017-12-22T14:34:16.327Z,7.30
2017-12-22T14:36:43.785Z,7.30
2017-12-22T14:39:11.309Z,7.30
2017-12-22T14:41:38.699Z,7.50
2017-12-22T14:44:06.156Z,7.40
2017-12-22T14:46:33.655Z,7.40
2017-12-22T14:49:01.077Z,7.50
2017-12-22T14:51:28.564Z,7.40
2017-12-22T14:53:56.020Z,7.50
2017-12-22T14:56:23.485Z,7.60
2017-12-22T14:58:51.758Z,7.40
2017-12-22T15:01:19.229Z,7.40
2017-12-22T15:03:46.656Z,7.30
2017-12-22T15:06:14.504Z,7.30
2017-12-22T15:08:41.961Z,7.20
2017-12-22T15:11:09.809Z,7.20
2017-12-22T15:13:41.094Z,7.20
2017-12-22T15:16:08.816Z,7.10
2017-12-22T15:18:36.300Z,7.20
2017-12-22T15:21:03.850Z,7.20
2017-12-22T15:23:31.406Z,7.20
2017-12-22T15:25:59.098Z,7.20
2017-12-22T15:28:26.546Z,7.10
2017-12-22T15:30:54.146Z,7.20
2017-12-22T15:33:21.626Z,7.20
2017-12-22T15:35:49.107Z,7.20
2017-12-22T15:38:16.577Z,7.20
2017-12-22T15:40:44.231Z,7.20
2017-12-22T15:43:14.893Z,7.10
2017-12-22T15:45:42.407Z,7.20
2017-12-22T15:48:09.973Z,7.10
2017-12-22T15:50:37.526Z,7.10
2017-12-22T15:53:04.971Z,7.00
2017-12-22T15:55:32.406Z,6.90
2017-12-22T15:58:03.300Z,6.90
2017-12-22T16:00:31.234Z,6.90
2017-12-22T16:02:58.863Z,6.70
2017-12-22T16:05:26.294Z,6.70
2017-12-22T16:07:53.791Z,6.60
2017-12-22T16:10:21.788Z,6.40
2017-12-22T16:13:00.099Z,6.30
2017-12-22T16:15:27.552Z,6.20
2017-12-22T16:17:55.031Z,6.10
2017-12-22T16:20:22.632Z,6.10
2017-12-22T16:22:50.101Z,6.00
2017-12-22T16:25:17.532Z,5.90
2017-12-22T16:27:46.002Z,5.90
2017-12-22T16:30:13.444Z,6.00
2017-12-22T16:32:40.912Z,6.00
2017-12-22T16:35:08.899Z,5.80
2017-12-22T16:37:36.452Z,5.80
2017-12-22T16:40:04.020Z,5.90
2017-12-22T16:42:31.478Z,5.80
2017-12-22T16:44:59.696Z,5.60
2017-12-22T16:47:27.211Z,5.60
2017-12-22T16:49:54.690Z,5.60
2017-12-22T16:52:22.589Z,5.70
2017-12-22T16:54:50.061Z,5.70
2017-12-22T16:57:17.567Z,5.60
2017-12-22T16:59:45.074Z,5.60
2017-12-22T17:02:12.523Z,5.60
2017-12-22T17:04:40.070Z,5.60
2017-12-22T17:07:07.639Z,5.60
2017-12-22T17:09:35.106Z,5.50
2017-12-22T17:12:02.592Z,5.40
2017-12-22T17:14:32.892Z,5.40
2017-12-22T17:17:00.362Z,5.30
2017-12-22T17:19:27.807Z,5.20
2017-12-22T17:21:55.268Z,5.20
2017-12-22T17:24:22.880Z,5.20
2017-12-22T17:26:50.418Z,5.20
2017-12-22T17:29:18.691Z,5.20
2017-12-22T17:31:46.401Z,5.20
2017-12-22T17:34:13.994Z,5.10
2017-12-22T17:36:41.460Z,5.10
2017-12-22T17:39:08.947Z,5.10
2017-12-22T17:41:36.760Z,5.10
2017-12-22T17:44:04.228Z,5.10
2017-12-22T17:46:32.119Z,5.00
2017-12-22T17:48:59.590Z,5.00
2017-12-22T17:51:27.854Z,4.90
2017-12-22T17:53:55.572Z,4.90
2017-12-22T17:56:23.167Z,4.80
2017-12-22T17:58:50.842Z,4.70
2017-12-22T18:01:18.323Z,4.70
2017-12-22T18:03:46.662Z,4.70
2017-12-22T18:06:14.186Z,4.80
2017-12-22T18:08:41.703Z,4.90
2017-12-22T18:11:09.979Z,4.70
2017-12-22T18:13:37.484Z,4.70
2017-12-22T18:16:07.971Z,4.70
2017-12-22T18:18:35.444Z,4.70
2017-12-22T18:21:03.081Z,4.60
2017-12-22T18:23:30.541Z,4.60
2017-12-22T18:25:58.035Z,4.60
2017-12-22T18:28:25.564Z,4.50
2017-12-22T18:30:57.366Z,4.40
2017-12-22T18:33:28.195Z,4.40
2017-12-22T18:35:55.794Z,4.40
2017-12-22T18:38:23.315Z,4.40
2017-12-22T18:40:50.828Z,4.30
2017-12-22T18:43:18.319Z,4.20
2017-12-22T18:45:45.883Z,4.10
2017-12-22T18:48:13.612Z,4.20
2017-12-22T18:50:41.903Z,4.20
2017-12-22T18:53:09.477Z,4.20
2017-12-22T18:55:36.974Z,4.10
2017-12-22T18:58:04.668Z,4.20
2017-12-22T19:00:32.924Z,4.10
2017-12-22T19:03:00.469Z,4.10
2017-12-22T19:05:27.971Z,4.20
2017-12-22T19:07:56.736Z,4.30
2017-12-22T19:10:24.184Z,4.30
2017-12-22T19:12:51.659Z,4.40
2017-12-22T19:15:19.191Z,4.50
2017-12-22T19:17:54.368Z,4.40
2017-12-22T19:20:21.843Z,4.30
2017-12-22T19:22:49.375Z,4.40
2017-12-22T19:25:17.649Z,4.40
2017-12-22T19:27:45.376Z,4.40
2017-12-22T19:30:12.981Z,4.40
2017-12-22T19:32:48.629Z,4.40
2017-12-22T19:35:16.360Z,4.30
2017-12-22T19:37:43.981Z,4.20
2017-12-22T19:40:11.515Z,4.10
2017-12-22T19:42:39.016Z,4.10
2017-12-22T19:45:07.299Z,4.20
2017-12-22T19:47:37.675Z,4.20
2017-12-22T19:50:05.904Z,4.20
2017-12-22T19:52:34.609Z,4.40
2017-12-22T19:55:04.028Z,4.50
2017-12-22T19:57:32.675Z,4.50
2017-12-22T20:00:00.163Z,4.40
2017-12-22T20:02:27.785Z,4.40
2017-12-22T20:04:55.401Z,4.40
2017-12-22T20:07:22.916Z,4.40
2017-12-22T20:09:50.431Z,4.40
2017-12-22T20:12:18.724Z,4.50
2017-12-22T20:14:46.390Z,4.50
2017-12-22T20:17:16.974Z,4.50
2017-12-22T20:19:44.471Z,4.50
2017-12-22T20:22:12.213Z,4.50
2017-12-22T20:24:39.745Z,4.50
2017-12-22T20:27:07.336Z,4.50
2017-12-22T20:29:34.890Z,4.60
2017-12-22T20:32:02.385Z,4.60
2017-12-22T20:34:29.869Z,4.60
2017-12-22T20:36:57.507Z,4.60
2017-12-22T20:39:25.037Z,4.60
2017-12-22T20:41:52.583Z,4.60
2017-12-22T20:44:20.848Z,4.50
2017-12-22T20:46:48.451Z,4.60
2017-12-22T20:49:20.174Z,4.60
2017-12-22T20:51:48.450Z,4.60
2017-12-22T20:54:15.942Z,4.60
2017-12-22T20:56:43.649Z,4.60
2017-12-22T20:59:11.168Z,4.50
2017-12-22T21:01:38.851Z,4.50
2017-12-22T21:04:06.405Z,4.60
2017-12-22T21:06:34.244Z,4.70
2017-12-22T21:09:01.772Z,4.70
2017-12-22T21:11:29.279Z,4.70
2017-12-22T21:13:56.803Z,4.70
2017-12-22T21:16:24.564Z,4.80
2017-12-22T21:18:52.071Z,4.80
2017-12-22T21:21:19.580Z,4.80
2017-12-22T21:23:47.233Z,4.90
2017-12-22T21:26:14.776Z,4.90
2017-12-22T21:28:42.451Z,4.90
2017-12-22T21:31:09.925Z,4.90
2017-12-22T21:33:40.439Z,5.00
2017-12-22T21:36:08.212Z,5.00
2017-12-22T21:38:36.082Z,5.10
2017-12-22T21:41:04.483Z,5.20
2017-12-22T21:43:31.979Z,5.20
2017-12-22T21:45:59.600Z,5.20
2017-12-22T21:48:30.741Z,5.20
2017-12-22T21:50:58.437Z,5.30
2017-12-22T21:53:25.921Z,5.30
2017-12-22T21:55:53.456Z,5.30
2017-12-22T21:58:20.950Z,5.30
2017-12-22T22:00:49.197Z,5.20
2017-12-22T22:03:16.714Z,5.20
2017-12-22T22:05:44.243Z,5.10
2017-12-22T22:08:12.493Z,5.20
2017-12-22T22:10:39.985Z,5.10
2017-12-22T22:13:07.491Z,5.20
2017-12-22T22:15:35.009Z,5.20
2017-12-22T22:18:02.492Z,5.30
2017-12-22T22:20:30.000Z,5.30
2017-12-22T22:22:57.703Z,5.30
2017-12-22T22:25:25.361Z,5.20
2017-12-22T22:27:52.890Z,5.30
2017-12-22T22:30:21.159Z,5.30
2017-12-22T22:32:48.950Z,5.30
2017-12-22T22:35:19.971Z,5.30
2017-12-22T22:37:47.535Z,5.30
2017-12-22T22:40:15.015Z,5.30
2017-12-22T22:42:42.490Z,5.40
2017-12-22T22:45:10.000Z,5.40
2017-12-22T22:47:38.230Z,5.40
2017-12-22T22:50:05.763Z,5.40
2017-12-22T22:52:33.244Z,5.40
2017-12-22T22:55:00.960Z,5.50
2017-12-22T22:57:28.591Z,5.50
2017-12-22T22:59:56.106Z,5.50
2017-12-22T23:02:23.613Z,5.50
2017-12-22T23:04:51.041Z,5.50
2017-12-22T23:07:18.569Z,5.50
2017-12-22T23:09:46.028Z,5.60
2017-12-22T23:12:13.533Z,5.60
2017-12-22T23:14:42.147Z,5.70
2017-12-22T23:17:09.671Z,5.70
2017-12-22T23:19:37.133Z,5.60
2017-12-22T23:22:04.576Z,5.70
2017-12-22T23:24:32.046Z,5.70
2017-12-22T23:26:59.528Z,5.60
2017-12-22T23:29:27.788Z,5.70
2017-12-22T23:31:55.541Z,5.70
2017-12-22T23:34:23.587Z,5.60
2017-12-22T23:36:51.291Z,5.70
2017-12-22T23:39:23.133Z,5.60
2017-12-22T23:41:50.696Z,5.60
2017-12-22T23:44:18.405Z,5.60
2017-12-22T23:46:46.120Z,5.60
2017-12-22T23:49:13.741Z,5.60
2017-12-22T23:51:44.384Z,5.70
2017-12-22T23:54:11.828Z,5.80
2017-12-22T23:56:39.321Z,5.80
2017-12-22T23:59:06.819Z,5.80
